Fabian Garcia SC

2021-10-22 04:25:00

  • imperial
Date Time Air Temperature Relative Humidity Dewpoint Windchill Heat Index Wind Speed Wind Dir. Rain Solar Radiation Soil Temperature
2m 2m 3m 3m 10cm
US/Mountain F % F F F MPH deg in MJ/m^2 F
max avg avg
2021-10-21 04:30:00 50.8 48.2 31.9 50.8 50.8 2.1 3.1 1.6 329.3 309.1 0.00 0.0000000 64.1
2021-10-21 04:35:00 53.4 42.6 31.2 53.4 53.4 4.6 6.3 4.3 339.3 323.1 0.00 0.0000000 64.1
2021-10-21 04:40:00 55.0 40.3 31.3 55.0 55.0 5.8 6.7 5.4 327.2 336.9 0.00 0.0000000 64.0
2021-10-21 04:45:00 55.4 40.2 31.6 55.4 55.4 3.7 5.8 4.5 0.1 353.3 0.00 0.0000000 64.0
2021-10-21 04:50:00 55.5 40.1 31.6 55.5 55.5 3.8 5.3 3.9 341.2 359.5 0.00 0.0000000 63.9
2021-10-21 04:55:00 55.7 41.2 32.5 55.7 55.7 2.6 4.6 3.6 342.7 341.3 0.00 0.0000000 63.9
2021-10-21 05:00:00 54.9 40.7 31.4 54.9 54.9 4.2 4.2 3.0 344.1 352.9 0.00 0.0000020 63.8
2021-10-21 05:05:00 55.1 39.3 30.8 55.1 55.1 4.4 5.1 4.2 337.8 343.4 0.00 0.0000020 63.8
2021-10-21 05:10:00 55.7 38.7 30.9 55.7 55.7 4.6 5.5 4.5 344.5 349.3 0.00 0.0000020 63.7
2021-10-21 05:15:00 56.1 38.1 30.9 56.1 56.1 4.4 5.3 4.4 336.3 337.9 0.00 0.0000020 63.7
2021-10-21 05:20:00 54.6 45.4 33.9 54.6 54.6 1.5 4.0 2.4 265.6 297.7 0.00 0.0000000 63.7
2021-10-21 05:25:00 53.2 48.9 34.5 53.2 53.2 2.4 2.4 1.9 262.8 270.2 0.00 0.0000020 63.6
2021-10-21 05:30:00 51.9 49.2 33.4 51.9 51.9 2.8 3.1 2.8 257.1 269.0 0.00 0.0000000 63.6
2021-10-21 05:35:00 51.0 51.0 33.5 51.0 51.0 2.8 3.1 2.8 251.5 258.5 0.00 0.0000000 63.5
2021-10-21 05:40:00 50.4 52.7 33.7 50.4 50.4 3.0 3.3 3.0 248.9 254.0 0.00 0.0000040 63.5
2021-10-21 05:45:00 49.6 54.0 33.6 49.1 49.6 3.1 3.1 2.9 262.4 254.3 0.00 0.0000000 63.5
2021-10-21 05:50:00 50.2 48.1 31.3 50.2 50.2 4.9 5.3 2.7 335.4 282.6 0.00 0.0000000 63.4
2021-10-21 05:55:00 53.9 38.5 29.2 53.9 53.9 5.5 7.1 6.1 338.8 336.0 0.00 0.0000020 63.4
2021-10-21 06:00:00 55.6 35.8 28.9 55.6 55.6 8.7 8.7 6.6 338.3 342.3 0.00 0.0000020 63.3
2021-10-21 06:05:00 56.0 35.0 28.7 56.0 56.0 6.3 10.5 6.4 326.9 350.7 0.00 0.0000000 63.3
2021-10-21 06:10:00 56.3 34.4 28.5 56.3 56.3 7.4 9.4 6.6 344.2 342.2 0.00 0.0000000 63.3
2021-10-21 06:15:00 56.2 34.7 28.8 56.2 56.2 5.3 8.0 6.1 0.4 353.3 0.00 0.0000000 63.2
2021-10-21 06:20:00 56.1 35.0 28.8 56.1 56.1 5.3 6.3 5.0 319.3 352.3 0.00 0.0000000 63.2
2021-10-21 06:25:00 56.2 34.3 28.5 56.2 56.2 5.6 8.1 5.9 329.1 337.4 0.00 0.0000000 63.2
2021-10-21 06:30:00 55.9 35.8 29.2 55.9 55.9 5.6 6.9 5.2 338.8 339.0 0.00 0.0000000 63.1
2021-10-21 06:35:00 56.1 35.0 28.8 56.1 56.1 6.9 7.8 6.4 341.9 338.5 0.00 0.0000000 63.1
2021-10-21 06:40:00 56.0 35.1 28.8 56.0 56.0 5.8 7.8 5.7 329.8 334.6 0.00 0.0000000 63.1
2021-10-21 06:45:00 55.7 36.0 29.1 55.7 55.7 2.8 6.3 5.0 324.3 334.1 0.00 0.0000000 63.0
2021-10-21 06:50:00 55.0 36.2 28.6 55.0 55.0 4.7 4.7 2.9 333.9 320.1 0.00 0.0000000 63.0
2021-10-21 06:55:00 55.1 37.0 29.3 55.1 55.1 5.1 6.2 4.4 8.8 356.9 0.00 0.0000020 63.0
2021-10-21 07:00:00 55.4 36.2 29.0 55.4 55.4 4.9 7.4 5.1 10.0 351.5 0.00 0.0000485 62.9
2021-10-21 07:05:00 54.9 37.3 29.3 54.9 54.9 5.1 6.5 4.9 336.6 340.2 0.00 0.0001718 62.9
2021-10-21 07:10:00 54.7 37.2 29.0 54.7 54.7 4.9 5.6 4.9 342.7 339.0 0.00 0.0004346 62.9
2021-10-21 07:15:00 54.8 37.8 29.5 54.8 54.8 5.1 6.7 5.4 334.3 339.6 0.00 0.0009198 62.9
2021-10-21 07:20:00 54.6 37.7 29.3 54.6 54.6 6.2 7.8 6.0 331.8 339.9 0.00 0.0016152 62.8
2021-10-21 07:25:00 54.2 38.4 29.3 54.2 54.2 5.5 6.7 5.5 323.9 342.6 0.00 0.0023834 62.8
2021-10-21 07:30:00 54.2 38.4 29.4 54.2 54.2 4.2 6.2 4.9 339.7 347.2 0.00 0.0044817 62.8
2021-10-21 07:35:00 54.6 39.2 30.2 54.6 54.6 3.7 5.6 4.1 5.4 352.6 0.00 0.0080092 62.7
2021-10-21 07:40:00 54.6 37.8 29.4 54.6 54.6 6.3 6.3 5.0 7.6 359.7 0.00 0.0112618 62.7
2021-10-21 07:45:00 54.8 37.5 29.4 54.8 54.8 5.8 6.9 5.6 341.9 347.6 0.00 0.0133646 62.7
2021-10-21 07:50:00 55.2 37.1 29.4 55.2 55.2 5.6 6.9 5.9 12.6 344.5 0.00 0.0164699 62.7
2021-10-21 07:55:00 55.4 36.6 29.3 55.4 55.4 4.7 8.5 5.6 22.9 355.9 0.00 0.0261779 62.6
2021-10-21 08:00:00 55.9 36.1 29.4 55.9 55.9 6.2 6.2 4.3 21.9 6.9 0.00 0.0325135 62.6
2021-10-21 08:05:00 55.9 35.7 29.2 55.9 55.9 4.2 6.9 4.3 20.3 12.0 0.00 0.0380538 62.6
2021-10-21 08:10:00 56.1 36.9 30.1 56.1 56.1 2.2 5.1 3.2 19.0 22.4 0.00 0.0425130 62.5
2021-10-21 08:15:00 56.2 34.7 28.7 56.2 56.2 4.7 7.4 5.3 2.1 359.6 0.00 0.0470695 62.5
2021-10-21 08:20:00 56.4 34.0 28.4 56.4 56.4 7.8 9.2 6.9 343.5 352.6 0.00 0.0516610 62.5
2021-10-21 08:25:00 56.6 33.5 28.2 56.6 56.6 6.3 8.0 5.8 7.3 4.4 0.00 0.0563092 62.5
2021-10-21 08:30:00 56.7 33.7 28.4 56.7 56.7 6.2 8.0 6.4 18.9 360.0 0.00 0.0610691 62.5
2021-10-21 08:35:00 57.1 33.3 28.5 57.1 57.1 4.6 8.0 5.5 0.4 6.6 0.00 0.0658052 62.5
2021-10-21 08:40:00 57.4 33.4 28.9 57.4 57.4 3.3 7.8 5.4 17.5 4.5 0.00 0.0705149 62.5
2021-10-21 08:45:00 58.0 33.7 29.5 58.0 58.0 5.3 7.8 6.0 16.5 358.6 0.00 0.0754521 62.5
2021-10-21 08:50:00 58.0 33.0 29.1 58.0 58.0 6.9 7.4 5.9 342.9 14.2 0.00 0.0804228 62.4
2021-10-21 08:55:00 58.9 31.6 28.7 58.9 58.9 6.9 7.4 5.8 6.4 5.1 0.00 0.0851788 62.4
2021-10-21 09:00:00 58.8 32.0 29.0 58.8 58.8 7.8 9.2 6.8 13.2 4.9 0.00 0.0900474 62.4
2021-10-21 09:05:00 59.5 30.9 28.7 59.5 59.5 6.9 9.0 6.5 343.1 354.5 0.00 0.0949263 62.4
2021-10-21 09:10:00 59.5 31.8 29.4 59.5 59.5 4.9 10.1 7.4 332.6 353.4 0.00 0.0996295 62.5
2021-10-21 09:15:00 59.8 30.7 28.9 59.8 59.8 6.5 8.1 6.2 11.0 3.9 0.00 0.1043998 62.5
2021-10-21 09:20:00 60.2 30.2 28.8 60.2 60.2 6.7 10.3 8.1 341.9 1.1 0.00 0.1090628 62.5
2021-10-21 09:25:00 60.5 29.8 28.8 60.5 60.5 7.1 11.5 7.5 329.5 349.2 0.00 0.1135645 62.5
2021-10-21 09:30:00 61.0 29.2 28.6 61.0 61.0 5.5 9.7 7.7 2.2 346.8 0.00 0.1180554 62.5
2021-10-21 09:35:00 61.2 29.9 29.4 61.2 61.2 6.2 10.1 7.3 327.5 348.3 0.00 0.1224244 62.5
2021-10-21 09:40:00 61.8 27.8 28.1 61.8 61.8 7.1 8.3 6.2 45.4 5.0 0.00 0.1268667 62.6
2021-10-21 09:45:00 62.4 28.6 29.4 62.4 62.4 9.4 9.6 7.1 329.1 353.9 0.00 0.1311447 62.6
2021-10-21 09:50:00 62.7 27.8 29.0 62.7 62.7 5.8 10.3 7.1 16.3 3.2 0.00 0.1354288 62.6
2021-10-21 09:55:00 63.3 26.7 28.5 63.3 63.3 7.6 8.7 6.5 0.3 0.6 0.00 0.1396158 62.7
2021-10-21 10:00:00 64.1 26.4 28.9 64.1 64.1 8.3 9.0 6.9 341.0 0.3 0.00 0.1436754 62.7
2021-10-21 10:05:00 64.4 26.2 28.9 64.4 64.4 6.9 9.0 6.6 335.9 347.9 0.00 0.1477154 62.8
2021-10-21 10:10:00 65.4 25.9 29.4 65.4 65.4 6.9 9.0 6.5 27.6 2.8 0.00 0.1517144 62.9
2021-10-21 10:15:00 66.3 24.9 29.4 66.3 66.3 6.2 8.1 6.0 24.8 2.3 0.00 0.1555738 62.9
2021-10-21 10:20:00 66.6 25.4 30.0 66.6 66.6 6.5 9.6 6.4 13.3 359.7 0.00 0.1594093 63.0
2021-10-21 10:25:00 67.3 23.4 28.6 67.3 67.3 5.5 9.4 6.2 19.4 10.6 0.00 0.1629842 63.1
2021-10-21 10:30:00 67.4 23.4 28.6 67.4 67.4 6.2 9.0 6.5 0.1 359.2 0.00 0.1665753 63.1
2021-10-21 10:35:00 68.3 22.8 28.9 68.3 68.3 7.2 7.4 5.3 0.5 349.7 0.00 0.1699876 63.2
2021-10-21 10:40:00 68.3 24.9 31.1 68.3 68.3 4.4 8.7 5.5 3.5 360.0 0.00 0.1733282 63.3
2021-10-21 10:45:00 68.7 22.1 28.4 68.7 68.7 5.8 9.0 6.6 1.9 2.9 0.00 0.1764562 63.4
2021-10-21 10:50:00 69.7 22.5 29.7 69.7 69.7 4.4 7.6 5.7 40.5 355.3 0.00 0.1795001 63.5
2021-10-21 10:55:00 69.6 21.9 29.0 69.6 69.6 6.9 9.0 5.6 25.9 346.6 0.00 0.1825555 63.6
2021-10-21 11:00:00 70.4 20.9 28.5 70.4 70.4 3.3 7.8 5.7 337.6 2.7 0.00 0.1854929 63.7
2021-10-21 11:05:00 70.8 20.9 28.8 70.8 70.8 8.0 8.0 5.1 334.2 15.5 0.00 0.1883486 63.8
2021-10-21 11:10:00 71.2 22.2 30.6 71.2 71.2 4.6 7.6 5.3 11.9 357.3 0.00 0.1909738 64.0
2021-10-21 11:15:00 71.5 20.1 28.4 71.5 71.5 6.0 9.7 5.4 339.3 332.5 0.00 0.1935142 64.1
2021-10-21 11:20:00 73.0 22.0 31.9 73.0 73.0 4.7 6.5 4.2 0.1 358.9 0.00 0.1959433 64.2
2021-10-21 11:25:00 73.6 19.2 29.1 73.6 73.6 3.7 6.7 5.0 0.7 357.8 0.00 0.1982756 64.3
2021-10-21 11:30:00 73.6 18.9 28.7 73.6 73.6 7.8 7.8 4.3 20.8 13.4 0.00 0.2004001 64.5
2021-10-21 11:35:00 74.0 21.5 32.2 74.0 74.0 3.7 5.8 3.8 78.4 43.8 0.00 0.2025220 64.6
2021-10-21 11:40:00 75.2 18.0 28.8 75.2 75.2 2.2 7.4 4.2 342.1 349.1 0.00 0.2042094 64.8
2021-10-21 11:45:00 75.3 18.4 29.4 75.3 75.3 4.9 6.2 4.2 0.1 335.4 0.00 0.2061794 64.9
2021-10-21 11:50:00 75.3 18.0 28.9 75.3 75.3 2.4 5.5 3.2 146.4 300.5 0.00 0.2078775 65.0
2021-10-21 11:55:00 76.6 19.5 32.0 76.6 76.6 4.7 5.1 2.7 14.0 46.0 0.00 0.2070491 65.2
2021-10-21 12:00:00 76.6 18.0 29.9 76.6 76.6 3.8 5.1 3.0 48.3 27.8 0.00 0.2121689 65.4
2021-10-21 12:05:00 76.7 18.6 30.8 76.7 76.7 4.6 4.6 2.4 324.0 101.6 0.00 0.2126865 65.6
2021-10-21 12:10:00 76.3 18.1 29.8 76.3 76.3 3.7 5.8 4.0 84.4 42.1 0.00 0.2137968 65.7
2021-10-21 12:15:00 77.9 17.4 30.2 77.9 77.9 1.3 4.4 2.6 153.5 110.4 0.00 0.2149126 65.9
2021-10-21 12:20:00 79.4 16.0 29.2 79.4 79.4 4.7 5.6 2.7 337.4 312.0 0.00 0.2156794 66.0
2021-10-21 12:25:00 79.1 17.4 31.0 79.1 79.1 3.7 4.4 2.9 49.9 343.3 0.00 0.2164747 66.2
2021-10-21 12:30:00 78.7 17.2 30.5 78.7 78.7 0.8 3.8 2.3 6.9 29.1 0.00 0.2170501 66.4
2021-10-21 12:35:00 79.1 16.5 29.8 79.1 79.1 3.5 4.2 2.4 127.2 74.9 0.00 0.2179235 66.5
2021-10-21 12:40:00 79.8 17.3 31.5 79.8 79.8 2.8 3.1 2.0 310.9 130.7 0.00 0.2182116 66.7
2021-10-21 12:45:00 80.3 17.6 32.4 80.3 80.3 3.0 5.1 3.4 146.6 258.1 0.00 0.2186629 66.8
2021-10-21 12:50:00 79.1 16.4 29.6 79.1 79.1 3.0 5.6 3.8 285.6 269.6 0.00 0.2185336 66.9
2021-10-21 12:55:00 78.9 16.3 29.4 78.9 78.9 1.9 3.8 2.1 76.7 219.0 0.00 0.2187781 67.0
2021-10-21 13:00:00 79.8 16.3 30.1 79.8 79.8 4.0 4.0 2.3 247.3 296.5 0.00 0.2184821 67.1
2021-10-21 13:05:00 80.0 16.2 30.1 80.0 80.0 2.1 5.3 3.4 248.5 247.7 0.00 0.2183767 67.2
2021-10-21 13:10:00 81.0 15.9 30.4 81.0 81.0 4.2 5.5 3.8 268.7 329.1 0.00 0.2175984 67.3
2021-10-21 13:15:00 80.6 15.7 29.9 80.6 80.6 3.3 5.3 3.6 253.3 302.5 0.00 0.2170220 67.4
2021-10-21 13:20:00 81.2 15.9 30.6 81.2 81.2 5.6 6.0 3.4 189.4 311.1 0.00 0.2160352 67.6
2021-10-21 13:25:00 81.9 15.4 30.3 81.9 81.9 5.1 5.1 2.7 163.8 161.4 0.00 0.2153290 67.7
2021-10-21 13:30:00 81.6 15.7 30.7 81.6 81.6 1.7 4.6 2.2 169.3 227.7 0.00 0.2147904 67.8
2021-10-21 13:35:00 83.0 16.6 33.1 83.0 83.0 1.2 3.7 2.0 77.1 123.1 0.00 0.2145689 67.9
2021-10-21 13:40:00 81.8 15.7 30.8 81.8 81.8 3.7 5.3 4.2 66.0 92.4 0.00 0.2132888 68.1
2021-10-21 13:45:00 80.7 16.2 30.6 80.7 80.7 3.5 6.7 4.3 231.5 180.3 0.00 0.2116241 68.2
2021-10-21 13:50:00 81.2 16.7 31.8 81.2 81.2 5.8 8.0 5.0 207.0 216.1 0.00 0.2100521 68.3
2021-10-21 13:55:00 81.9 17.5 33.6 81.9 81.9 4.7 8.1 5.1 45.9 191.9 0.00 0.2085135 68.5
2021-10-21 14:00:00 82.5 15.7 31.2 82.5 82.5 3.3 6.0 2.9 163.4 113.8 0.00 0.2074215 68.7
2021-10-21 14:05:00 83.2 15.8 32.1 83.2 83.2 4.6 4.7 3.4 145.1 200.7 0.00 0.2059702 68.8
2021-10-21 14:10:00 83.3 16.4 33.0 83.3 83.3 6.9 6.9 4.5 280.0 210.1 0.00 0.2042320 69.0
2021-10-21 14:15:00 82.6 16.6 32.8 82.6 82.6 8.0 9.2 4.5 221.3 212.8 0.00 0.2019088 69.2
2021-10-21 14:20:00 82.8 16.6 32.8 82.8 82.8 5.1 8.5 5.0 199.2 188.3 0.00 0.1999579 69.4
2021-10-21 14:25:00 82.5 15.8 31.5 82.5 82.5 2.6 6.7 4.7 161.7 212.4 0.00 0.1976608 69.5
2021-10-21 14:30:00 83.8 16.0 32.8 83.8 83.8 1.5 3.5 1.3 126.2 106.9 0.00 0.1951347 69.7
2021-10-21 14:35:00 84.1 15.5 32.3 84.1 84.1 5.8 7.1 4.1 187.2 162.1 0.00 0.1929032 69.9
2021-10-21 14:40:00 82.8 16.6 32.8 82.8 82.8 6.0 7.8 5.6 237.0 229.2 0.00 0.1902801 70.1
2021-10-21 14:45:00 83.0 17.6 34.6 83.0 83.0 4.2 6.9 4.4 268.8 211.7 0.00 0.1875169 70.3
2021-10-21 14:50:00 82.2 16.3 32.0 82.2 82.2 3.8 8.3 6.0 249.0 250.2 0.00 0.1845358 70.4
2021-10-21 14:55:00 82.7 16.1 32.0 82.7 82.7 3.1 5.8 3.5 263.7 249.6 0.00 0.1814940 70.6
2021-10-21 15:00:00 82.3 17.0 33.1 82.3 82.3 1.9 6.3 3.8 252.3 256.5 0.00 0.1784947 70.7
2021-10-21 15:05:00 83.8 16.7 33.8 83.8 83.8 3.8 3.8 2.6 151.0 183.1 0.00 0.1757628 70.9
2021-10-21 15:10:00 83.5 15.9 32.4 83.5 83.5 3.7 7.4 3.7 223.3 195.7 0.00 0.1725255 71.1
2021-10-21 15:15:00 83.1 16.1 32.4 83.1 83.1 3.5 3.8 2.9 265.1 253.1 0.00 0.1689459 71.2
2021-10-21 15:20:00 82.8 17.2 33.8 82.8 82.8 6.3 8.0 4.7 254.4 265.6 0.00 0.1655085 71.4
2021-10-21 15:25:00 82.1 16.5 32.3 82.1 82.1 4.0 7.4 5.1 289.0 269.9 0.00 0.1617456 71.5
2021-10-21 15:30:00 82.9 17.3 34.0 82.9 82.9 3.7 6.5 4.2 247.6 257.2 0.00 0.1580295 71.7
2021-10-21 15:35:00 83.2 16.6 33.3 83.2 83.2 3.7 6.2 4.2 339.3 302.3 0.00 0.1539196 71.8
2021-10-21 15:40:00 82.9 15.9 31.9 82.9 82.9 4.2 5.1 3.8 278.5 290.7 0.00 0.1499083 71.9
2021-10-21 15:45:00 84.0 16.0 33.0 84.0 84.0 2.2 4.9 2.9 226.4 259.2 0.00 0.1458889 72.1
2021-10-21 15:50:00 84.1 15.0 31.4 84.1 84.1 2.2 6.0 3.3 214.1 227.9 0.00 0.1416839 72.2
2021-10-21 15:55:00 84.3 16.6 34.2 84.3 84.3 2.4 4.7 2.4 253.4 283.6 0.00 0.1378566 72.3
2021-10-21 16:00:00 84.1 15.9 32.9 84.1 84.1 4.0 4.7 3.2 2.9 241.9 0.00 0.1335618 72.4
2021-10-21 16:05:00 83.9 17.8 35.5 83.9 83.9 3.0 3.5 2.6 241.1 198.1 0.00 0.1293961 72.5
2021-10-21 16:10:00 83.7 15.3 31.6 83.7 83.7 5.5 5.5 3.9 222.1 244.3 0.00 0.1251319 72.6
2021-10-21 16:15:00 83.9 15.4 31.9 83.9 83.9 1.5 6.2 3.3 243.3 226.8 0.00 0.1206508 72.8
2021-10-21 16:20:00 83.8 15.0 31.2 83.8 83.8 2.8 4.7 3.1 239.9 191.5 0.00 0.1161641 72.8
2021-10-21 16:25:00 83.2 15.9 32.1 83.2 83.2 6.7 6.7 4.6 236.3 240.0 0.00 0.1116384 72.9
2021-10-21 16:30:00 83.2 15.2 31.1 83.2 83.2 2.8 7.1 4.1 259.2 230.4 0.00 0.1069701 73.0
2021-10-21 16:35:00 83.6 15.8 32.4 83.6 83.6 4.4 4.9 3.3 256.1 248.6 0.00 0.1022863 73.1
2021-10-21 16:40:00 83.4 15.5 31.7 83.4 83.4 5.1 5.1 3.5 339.7 281.9 0.00 0.0973397 73.1
2021-10-21 16:45:00 83.3 16.1 32.6 83.3 83.3 5.1 5.1 3.4 231.0 271.7 0.00 0.0924743 73.2
2021-10-21 16:50:00 83.3 15.2 31.2 83.3 83.3 2.1 5.6 3.9 178.8 232.7 0.00 0.0877798 73.3
2021-10-21 16:55:00 83.6 16.0 32.7 83.6 83.6 2.2 5.8 3.3 191.7 206.9 0.00 0.0830095 73.3
2021-10-21 17:00:00 83.4 15.2 31.3 83.4 83.4 3.0 4.9 3.1 104.3 146.1 0.00 0.0780237 73.4
2021-10-21 17:05:00 83.3 15.3 31.3 83.3 83.3 4.2 4.7 3.4 159.5 118.7 0.00 0.0730152 73.4
2021-10-21 17:10:00 83.1 15.9 32.1 83.1 83.1 2.8 4.6 3.2 129.4 133.6 0.00 0.0680643 73.5
2021-10-21 17:15:00 83.1 15.3 31.1 83.1 83.1 1.3 3.5 2.2 90.3 129.7 0.00 0.0631170 73.5
2021-10-21 17:20:00 82.9 15.8 31.8 82.9 82.9 2.1 3.1 2.5 57.6 88.7 0.00 0.0583313 73.5
2021-10-21 17:25:00 83.0 15.4 31.3 83.0 83.0 1.5 2.6 1.9 50.6 51.5 0.00 0.0534666 73.5
2021-10-21 17:30:00 83.5 15.7 32.1 83.5 83.5 2.6 2.8 1.2 216.0 171.5 0.00 0.0488723 73.5
2021-10-21 17:35:00 83.1 15.7 31.7 83.1 83.1 2.8 3.7 2.8 219.8 229.2 0.00 0.0442318 73.5
2021-10-21 17:40:00 83.2 17.1 34.1 83.2 83.2 1.7 2.6 1.7 243.3 252.1 0.00 0.0396591 73.5
2021-10-21 17:45:00 83.2 17.5 34.6 83.2 83.2 1.5 2.6 1.9 221.1 245.7 0.00 0.0349748 73.5
2021-10-21 17:50:00 82.5 16.9 33.1 82.5 82.5 1.5 2.1 1.9 242.3 227.8 0.00 0.0294371 73.5
2021-10-21 17:55:00 81.3 20.7 37.3 81.3 81.3 1.7 1.9 1.5 220.9 231.0 0.00 0.0237488 73.5
2021-10-21 18:00:00 80.1 22.2 38.1 80.1 80.1 0.8 2.1 1.5 204.2 206.7 0.00 0.0184924 73.5
2021-10-21 18:05:00 79.6 22.0 37.3 79.6 79.6 0.0 0.0 0.0 204.9 0.0 0.00 0.0138152 73.5
2021-10-21 18:10:00 77.7 25.4 39.5 77.7 77.7 1.7 2.1 1.4 188.0 194.0 0.00 0.0074597 73.4
2021-10-21 18:15:00 76.3 24.6 37.5 76.3 76.3 1.0 1.9 1.4 163.9 171.2 0.00 0.0035715 73.4
2021-10-21 18:20:00 75.2 24.2 36.2 75.2 75.2 1.5 1.9 1.5 177.3 181.7 0.00 0.0028710 73.4
2021-10-21 18:25:00 74.8 25.2 36.8 74.8 74.8 0.0 1.3 0.7 185.4 178.7 0.00 0.0021199 73.3
2021-10-21 18:30:00 73.7 25.8 36.5 73.7 73.7 1.3 1.3 0.2 209.7 208.5 0.00 0.0013850 73.2
2021-10-21 18:35:00 73.0 28.0 38.0 73.0 73.0 1.3 1.9 1.6 204.4 214.2 0.00 0.0008419 73.2
2021-10-21 18:40:00 72.4 27.4 36.9 72.4 72.4 1.3 1.5 0.3 211.1 211.3 0.00 0.0004543 73.1
2021-10-21 18:45:00 71.8 27.4 36.4 71.8 71.8 0.0 1.3 0.1 200.8 211.1 0.00 0.0002039 73.0
2021-10-21 18:50:00 71.5 29.1 37.7 71.5 71.5 0.0 1.9 1.3 212.7 208.4 0.00 0.0000969 73.0
2021-10-21 18:55:00 71.2 29.1 37.4 71.2 71.2 1.2 1.9 1.0 173.5 199.3 0.00 0.0000020 72.9
2021-10-21 19:00:00 70.7 29.4 37.3 70.7 70.7 0.0 1.2 0.3 194.4 181.3 0.00 0.0000000 72.8
2021-10-21 19:05:00 70.5 30.4 37.9 70.5 70.5 0.0 0.0 0.0 209.5 0.0 0.00 0.0000020 72.7
2021-10-21 19:10:00 69.9 30.9 37.8 69.9 69.9 0.0 0.0 0.0 203.5 0.0 0.00 0.0000182 72.6
2021-10-21 19:15:00 69.9 31.8 38.5 69.9 69.9 0.0 0.0 0.0 202.6 0.0 0.00 0.0000323 72.6
2021-10-21 19:20:00 69.3 31.2 37.5 69.3 69.3 1.5 1.7 0.9 172.5 184.6 0.00 0.0000424 72.5
2021-10-21 19:25:00 69.7 31.3 38.0 69.7 69.7 1.2 1.7 1.4 186.1 175.8 0.00 0.0000505 72.4
2021-10-21 19:30:00 69.1 31.7 37.7 69.1 69.1 0.0 1.3 0.4 183.9 177.9 0.00 0.0000263 72.3
2021-10-21 19:35:00 68.4 32.7 37.9 68.4 68.4 0.0 0.0 0.0 184.0 0.0 0.00 0.0000121 72.2
2021-10-21 19:40:00 67.4 33.6 37.7 67.4 67.4 0.0 0.0 0.0 181.9 0.0 0.00 0.0000000 72.1
2021-10-21 19:45:00 66.2 37.7 39.7 66.2 66.2 1.5 1.9 0.8 315.6 282.5 0.00 0.0000000 72.0
2021-10-21 19:50:00 65.4 40.5 40.8 65.4 65.4 2.1 3.0 2.3 250.0 275.0 0.00 0.0000000 71.9
2021-10-21 19:55:00 65.0 43.0 42.0 65.0 65.0 2.8 3.0 2.5 221.5 226.6 0.00 0.0000000 71.8
2021-10-21 20:00:00 64.5 43.8 41.9 64.5 64.5 2.2 2.8 2.3 201.1 211.6 0.00 0.0000000 71.7
2021-10-21 20:05:00 64.5 44.2 42.2 64.5 64.5 1.9 2.1 1.9 196.1 208.7 0.00 0.0000000 71.6
2021-10-21 20:10:00 64.1 44.7 42.1 64.1 64.1 0.0 1.9 0.8 198.1 199.2 0.00 0.0000000 71.5
2021-10-21 20:15:00 63.7 45.1 42.0 63.7 63.7 0.0 0.0 0.0 217.3 0.0 0.00 0.0000000 71.4
2021-10-21 20:20:00 63.6 45.5 42.2 63.6 63.6 0.0 0.0 0.0 213.9 0.0 0.00 0.0000000 71.3
2021-10-21 20:25:00 63.6 46.4 42.7 63.6 63.6 1.7 1.7 0.1 187.7 188.9 0.00 0.0000000 71.2
2021-10-21 20:30:00 63.4 46.1 42.4 63.4 63.4 1.5 1.7 1.4 191.7 180.8 0.00 0.0000000 71.1
2021-10-21 20:35:00 63.1 45.8 41.9 63.1 63.1 2.1 2.1 1.3 156.1 180.0 0.00 0.0000000 71.0
2021-10-21 20:40:00 62.9 47.0 42.4 62.9 62.9 0.0 2.2 1.1 169.7 160.2 0.00 0.0000020 70.9
2021-10-21 20:45:00 62.3 48.5 42.6 62.3 62.3 0.0 0.0 0.0 221.6 0.0 0.00 0.0000000 70.8
2021-10-21 20:50:00 62.1 49.0 42.7 62.1 62.1 0.8 1.5 0.9 188.0 172.4 0.00 0.0000061 70.8
2021-10-21 20:55:00 62.0 50.4 43.4 62.0 62.0 0.0 0.8 0.0 208.7 188.4 0.00 0.0000061 70.6
2021-10-21 21:00:00 61.6 51.5 43.5 61.6 61.6 0.0 0.0 0.0 208.7 0.0 0.00 0.0000000 70.5
2021-10-21 21:05:00 61.3 52.0 43.5 61.3 61.3 1.2 1.2 0.1 191.6 191.9 0.00 0.0000323 70.4
2021-10-21 21:10:00 61.3 52.2 43.7 61.3 61.3 0.0 1.0 0.2 156.4 164.2 0.00 0.0000303 70.4
2021-10-21 21:15:00 60.7 54.1 44.0 60.7 60.7 0.0 0.0 0.0 161.3 0.0 0.00 0.0000344 70.3
2021-10-21 21:20:00 60.1 55.8 44.2 60.1 60.1 0.0 1.5 0.8 211.5 211.7 0.00 0.0000283 70.2
2021-10-21 21:25:00 59.9 55.9 44.1 59.9 59.9 0.0 0.0 0.0 229.3 0.0 0.00 0.0000323 70.1
2021-10-21 21:30:00 59.3 56.7 43.9 59.3 59.3 0.0 0.0 0.0 245.1 0.0 0.00 0.0000162 70.0
2021-10-21 21:35:00 58.9 57.9 44.1 58.9 58.9 0.0 0.0 0.0 226.1 0.0 0.00 0.0000141 69.9
2021-10-21 21:40:00 59.1 59.1 44.8 59.1 59.1 2.1 2.2 1.6 230.9 226.5 0.00 0.0000141 69.8
2021-10-21 21:45:00 58.8 58.4 44.3 58.8 58.8 1.7 2.4 2.0 242.9 241.4 0.00 0.0000061 69.7
2021-10-21 21:50:00 58.8 59.5 44.7 58.8 58.8 1.9 2.1 1.7 209.5 220.5 0.00 0.0000020 69.7
2021-10-21 21:55:00 58.6 58.9 44.3 58.6 58.6 1.5 1.9 1.6 221.1 214.5 0.00 0.0000061 69.6
2021-10-21 22:00:00 58.4 59.9 44.5 58.4 58.4 1.2 1.7 1.4 200.3 211.9 0.00 0.0000000 69.5
2021-10-21 22:05:00 58.1 60.3 44.4 58.1 58.1 1.5 1.9 1.2 234.8 216.1 0.00 0.0000000 69.4
2021-10-21 22:10:00 57.7 62.1 44.9 57.7 57.7 0.0 1.7 0.9 225.6 243.1 0.00 0.0000000 69.3
2021-10-21 22:15:00 57.5 59.8 43.6 57.5 57.5 0.0 0.0 0.0 198.6 0.0 0.00 0.0000000 69.2
2021-10-21 22:20:00 57.9 57.7 43.1 57.9 57.9 0.0 0.0 0.0 201.1 0.0 0.00 0.0000000 69.2
2021-10-21 22:25:00 57.9 58.0 43.3 57.9 57.9 0.0 0.0 0.0 192.7 0.0 0.00 0.0000000 69.1
2021-10-21 22:30:00 57.6 58.4 43.1 57.6 57.6 0.0 0.0 0.0 198.7 0.0 0.00 0.0000000 69.0
2021-10-21 22:35:00 57.4 59.7 43.5 57.4 57.4 0.0 0.0 0.0 220.9 0.0 0.00 0.0000000 68.9
2021-10-21 22:40:00 56.7 60.6 43.3 56.7 56.7 0.0 0.0 0.0 208.1 0.0 0.00 0.0000000 68.8
2021-10-21 22:45:00 56.3 61.9 43.4 56.3 56.3 0.0 0.0 0.0 202.3 0.0 0.00 0.0000000 68.7
2021-10-21 22:50:00 55.6 63.5 43.4 55.6 55.6 0.0 0.0 0.0 202.4 0.0 0.00 0.0000000 68.6
2021-10-21 22:55:00 55.3 63.5 43.1 55.3 55.3 0.0 0.0 0.0 202.4 0.0 0.00 0.0000000 68.6
2021-10-21 23:00:00 55.5 62.9 43.1 55.5 55.5 0.0 0.0 0.0 204.8 0.0 0.00 0.0000000 68.5
2021-10-21 23:05:00 55.9 62.6 43.3 55.9 55.9 0.0 0.0 0.0 188.5 0.0 0.00 0.0000000 68.4
2021-10-21 23:10:00 55.7 62.3 43.0 55.7 55.7 0.0 0.0 0.0 216.8 0.0 0.00 0.0000000 68.3
2021-10-21 23:15:00 55.5 62.3 42.8 55.5 55.5 0.0 0.0 0.0 217.5 0.0 0.00 0.0000000 68.3
2021-10-21 23:20:00 55.3 62.3 42.6 55.3 55.3 0.0 0.0 0.0 215.8 0.0 0.00 0.0000000 68.2
2021-10-21 23:25:00 55.3 65.4 43.9 55.3 55.3 1.7 2.1 1.5 226.5 218.3 0.00 0.0000000 68.1
2021-10-21 23:30:00 54.5 67.7 44.0 54.5 54.5 0.0 1.9 1.2 224.8 226.7 0.00 0.0000000 68.1
2021-10-21 23:35:00 54.2 69.1 44.3 54.2 54.2 0.0 0.0 0.0 207.0 0.0 0.00 0.0000000 68.0
2021-10-21 23:40:00 54.3 65.4 42.9 54.3 54.3 0.0 0.0 0.0 188.5 0.0 0.00 0.0000000 67.9
2021-10-21 23:45:00 54.2 64.9 42.7 54.2 54.2 0.0 0.0 0.0 189.4 0.0 0.00 0.0000000 67.8
2021-10-21 23:50:00 54.2 64.5 42.4 54.2 54.2 0.0 0.0 0.0 197.1 0.0 0.00 0.0000000 67.7
2021-10-21 23:55:00 54.2 65.1 42.7 54.2 54.2 0.0 0.0 0.0 225.0 0.0 0.00 0.0000000 67.7
2021-10-22 00:00:00 54.0 66.2 43.0 54.0 54.0 0.0 0.0 0.0 210.8 0.0 0.00 0.0000000 67.6
2021-10-22 00:05:00 53.9 67.1 43.2 53.9 53.9 0.0 0.0 0.0 222.2 0.0 0.00 0.0000000 67.5
2021-10-22 00:10:00 53.7 67.3 43.1 53.7 53.7 0.0 0.0 0.0 216.6 0.0 0.00 0.0000000 67.5
2021-10-22 00:15:00 53.8 67.4 43.3 53.8 53.8 0.0 0.0 0.0 195.3 0.0 0.00 0.0000000 67.4
2021-10-22 00:20:00 53.7 66.2 42.7 53.7 53.7 0.0 0.0 0.0 200.5 0.0 0.00 0.0000020 67.3
2021-10-22 00:25:00 53.5 67.9 43.2 53.5 53.5 2.6 5.5 2.7 176.1 157.1 0.00 0.0000000 67.2
2021-10-22 00:30:00 53.7 67.4 43.1 53.7 53.7 2.8 3.5 2.7 275.3 250.9 0.00 0.0000040 67.2
2021-10-22 00:35:00 54.0 65.9 42.9 54.0 54.0 2.4 3.8 3.1 244.2 274.4 0.00 0.0000000 67.1
2021-10-22 00:40:00 53.7 66.3 42.7 53.7 53.7 0.0 2.8 1.4 256.5 261.1 0.00 0.0000000 67.1
2021-10-22 00:45:00 53.4 66.6 42.5 53.4 53.4 0.0 0.0 0.0 87.3 0.0 0.00 0.0000000 67.0
2021-10-22 00:50:00 52.7 68.2 42.5 52.7 52.7 2.1 3.0 1.1 266.9 277.3 0.00 0.0000000 66.9
2021-10-22 00:55:00 52.3 69.6 42.7 52.3 52.3 0.0 1.7 0.7 171.9 200.4 0.00 0.0000040 66.9
2021-10-22 01:00:00 52.2 68.7 42.3 52.2 52.2 0.0 0.0 0.0 171.9 0.0 0.00 0.0000121 66.8
2021-10-22 01:05:00 52.5 67.2 42.0 52.5 52.5 0.0 0.0 0.0 148.7 0.0 0.00 0.0000142 66.7
2021-10-22 01:10:00 52.8 68.0 42.5 52.8 52.8 0.0 0.0 0.0 231.0 0.0 0.00 0.0000061 66.7
2021-10-22 01:15:00 52.7 67.4 42.2 52.7 52.7 2.2 2.2 1.7 276.6 221.7 0.00 0.0000040 66.6
2021-10-22 01:20:00 52.4 68.5 42.4 52.4 52.4 1.9 3.0 2.4 226.0 221.3 0.00 0.0000121 66.5
2021-10-22 01:25:00 52.0 72.6 43.4 52.0 52.0 3.0 3.0 2.1 237.4 250.6 0.00 0.0000121 66.5
2021-10-22 01:30:00 51.5 71.5 42.6 51.5 51.5 2.2 3.0 1.9 255.6 242.6 0.00 0.0000061 66.4
2021-10-22 01:35:00 51.6 69.9 42.1 51.6 51.6 2.1 3.0 2.5 228.7 250.4 0.00 0.0000040 66.4
2021-10-22 01:40:00 51.3 69.5 41.6 51.3 51.3 0.0 1.9 0.5 290.2 248.9 0.00 0.0000040 66.3
2021-10-22 01:45:00 51.3 70.6 42.1 51.3 51.3 1.3 1.3 0.1 272.4 271.8 0.00 0.0000142 66.3
2021-10-22 01:50:00 51.5 69.0 41.6 51.5 51.5 2.4 3.0 1.4 238.8 243.8 0.00 0.0000182 66.2
2021-10-22 01:55:00 52.1 65.6 40.9 52.1 52.1 1.0 3.1 2.2 285.7 67.1 0.00 0.0000101 66.1
2021-10-22 02:00:00 52.1 66.6 41.3 52.1 52.1 2.1 2.4 1.1 218.6 213.7 0.00 0.0000081 66.1
2021-10-22 02:05:00 51.5 68.0 41.3 51.5 51.5 1.7 2.1 1.4 278.0 217.1 0.00 0.0000101 66.0
2021-10-22 02:10:00 51.2 67.6 40.9 51.2 51.2 1.7 2.4 1.1 251.2 287.9 0.00 0.0000061 65.9
2021-10-22 02:15:00 51.4 69.8 41.9 51.4 51.4 2.8 2.8 2.0 232.8 224.2 0.00 0.0000142 65.9
2021-10-22 02:20:00 51.6 66.4 40.8 51.6 51.6 1.3 2.8 2.0 257.4 245.2 0.00 0.0000101 65.8
2021-10-22 02:25:00 51.6 66.9 41.0 51.6 51.6 0.0 1.0 0.1 212.0 249.0 0.00 0.0000081 65.8
2021-10-22 02:30:00 51.6 66.4 40.7 51.6 51.6 1.7 1.7 0.1 209.9 209.4 0.00 0.0000182 65.8
2021-10-22 02:35:00 51.5 64.6 40.0 51.5 51.5 2.8 2.8 2.0 241.2 214.1 0.00 0.0000121 65.7
2021-10-22 02:40:00 51.3 62.7 39.0 51.3 51.3 1.7 3.1 2.4 241.4 246.6 0.00 0.0000000 65.6
2021-10-22 02:45:00 51.5 62.9 39.3 51.5 51.5 2.4 3.7 2.9 240.0 225.2 0.00 0.0000020 65.6
2021-10-22 02:50:00 51.3 61.8 38.6 51.3 51.3 1.3 2.6 1.9 265.7 255.8 0.00 0.0000101 65.5
2021-10-22 02:55:00 51.5 60.6 38.3 51.5 51.5 0.0 1.3 0.2 241.8 266.7 0.00 0.0000121 65.5
2021-10-22 03:00:00 51.2 63.8 39.3 51.2 51.2 2.4 2.4 1.6 234.9 228.2 0.00 0.0000101 65.4
2021-10-22 03:05:00 51.0 60.3 37.7 51.0 51.0 1.0 2.2 1.5 274.3 257.2 0.00 0.0000121 65.4
2021-10-22 03:10:00 50.8 60.5 37.6 50.8 50.8 1.9 2.2 1.1 249.5 244.0 0.00 0.0000081 65.3
2021-10-22 03:15:00 50.6 59.3 37.0 50.6 50.6 1.5 2.4 1.7 267.7 260.5 0.00 0.0000101 65.3
2021-10-22 03:20:00 50.8 59.4 37.1 50.8 50.8 0.0 1.7 0.8 274.5 263.8 0.00 0.0000142 65.2
2021-10-22 03:25:00 50.5 58.8 36.7 50.5 50.5 0.0 1.3 0.2 248.3 278.3 0.00 0.0000000 65.2
2021-10-22 03:30:00 50.3 60.8 37.3 50.3 50.3 2.4 2.4 1.3 264.2 254.9 0.00 0.0000101 65.1
2021-10-22 03:35:00 50.8 58.5 36.7 50.8 50.8 1.7 2.6 2.3 264.4 265.3 0.00 0.0000061 65.0
2021-10-22 03:40:00 51.1 54.4 35.2 51.1 51.1 0.0 2.1 0.5 267.3 270.4 0.00 0.0000061 65.0
2021-10-22 03:45:00 51.0 55.8 35.7 51.0 51.0 0.8 1.0 0.1 235.6 246.9 0.00 0.0000020 65.0
2021-10-22 03:50:00 51.6 52.5 34.8 51.6 51.6 1.7 3.0 1.4 183.4 306.7 0.00 0.0000061 64.9
2021-10-22 03:55:00 51.8 51.9 34.7 51.8 51.8 1.9 2.1 1.0 242.3 256.9 0.00 0.0000081 64.9
2021-10-22 04:00:00 52.3 48.8 33.6 52.3 52.3 0.0 2.1 1.3 214.8 272.5 0.00 0.0000020 64.8
2021-10-22 04:05:00 52.7 46.9 33.0 52.7 52.7 0.0 1.3 0.6 280.0 272.0 0.00 0.0000061 64.8
2021-10-22 04:10:00 53.3 44.7 32.3 53.3 53.3 0.8 2.8 0.8 301.5 319.8 0.00 0.0000040 64.7
2021-10-22 04:15:00 53.6 45.3 32.9 53.6 53.6 2.1 3.0 1.7 272.2 274.9 0.00 0.0000081 64.7
2021-10-22 04:20:00 53.6 45.8 33.2 53.6 53.6 1.5 1.7 0.3 272.5 274.2 0.00 0.0000040 64.6
2021-10-22 04:25:00 53.6 48.9 34.9 53.6 53.6 2.6 3.0 2.3 234.2 257.3 0.00 0.0000000 64.6

Data is courtesy of the NM Climate Center. DO NOT USE IN LEGAL PROCEEDINGS.